Time;durP1;ratioP1;P1;durP2;ratioP2;P2;SDS_P1;SDS_P2;PMS_P1;PMS_P2;Temp;Humidity;BMP_temperature;BMP_pressure;BME280_temperature;BME280_humidity;BME280_pressure;Samples;Min_cycle;Max_cycle;Signal;HPM_P1;HPM_P2
2023/05/31 00:00:34;;;;;;;10.40;4.20;;;;;;;;;;4918212;28;20034;-75
2023/05/31 00:03:02;;;;;;;6.10;3.63;;;;;;;;;;4919962;28;20883;-74
2023/05/31 00:05:27;;;;;;;8.23;3.40;;;;;;;;;;4912014;28;20067;-74
2023/05/31 00:07:53;;;;;;;7.40;4.30;;;;;;;;;;4912230;28;20126;-75
2023/05/31 00:10:19;;;;;;;6.85;3.65;;;;;;;;;;4912475;28;20034;-74
2023/05/31 00:12:44;;;;;;;8.00;4.28;;;;;;;;;;4911720;28;20039;-74
2023/05/31 00:15:12;;;;;;;8.20;4.22;;;;;;;;;;4911475;28;20058;-74
2023/05/31 00:17:40;;;;;;;6.57;4.10;;;;;;;;;;4910282;28;20046;-74
2023/05/31 00:20:08;;;;;;;7.50;4.40;;;;;;;;;;4910181;28;21379;-74
2023/05/31 00:22:33;;;;;;;6.10;4.03;;;;;;;;;;4913995;28;20039;-74
2023/05/31 00:24:59;;;;;;;6.47;4.40;;;;;;;;;;4908952;28;20063;-74
2023/05/31 00:27:24;;;;;;;8.63;5.13;;;;;;;;;;4910653;28;20857;-74
2023/05/31 00:29:51;;;;;;;9.07;4.97;;;;;;;;;;4908867;28;20040;-74
2023/05/31 00:32:17;;;;;;;7.40;4.88;;;;;;;;;;4913552;28;20039;-74
2023/05/31 00:34:42;;;;;;;13.52;5.30;;;;;;;;;;4913372;28;20134;-73
2023/05/31 00:37:09;;;;;;;6.90;4.45;;;;;;;;;;4912632;28;20062;-74
2023/05/31 00:39:40;;;;;;;8.45;5.28;;;;;;;;;;4909104;28;20187;-74
2023/05/31 00:42:05;;;;;;;7.50;5.30;;;;;;;;;;4909436;28;20039;-74
2023/05/31 00:44:31;;;;;;;12.45;5.20;;;;;;;;;;4908655;28;20070;-74
2023/05/31 00:46:56;;;;;;;9.15;5.68;;;;;;;;;;4909057;28;20894;-74
2023/05/31 00:49:21;;;;;;;8.50;5.53;;;;;;;;;;4909706;28;20149;-74
2023/05/31 00:51:49;;;;;;;9.70;5.63;;;;;;;;;;4908986;28;20808;-74
2023/05/31 00:54:15;;;;;;;10.18;5.78;;;;;;;;;;4906634;28;20039;-75
2023/05/31 00:56:42;;;;;;;8.60;5.57;;;;;;;;;;4905289;28;20051;-73
2023/05/31 00:59:08;;;;;;;9.40;5.90;;;;;;;;;;4916405;28;20069;-73
2023/05/31 01:01:33;;;;;;;10.27;6.13;;;;;;;;;;4910267;28;20046;-72
2023/05/31 01:04:01;;;;;;;11.27;6.10;;;;;;;;;;4922774;28;20035;-73
2023/05/31 01:06:31;;;;;;;10.05;5.97;;;;;;;;;;4906526;28;20047;-73
2023/05/31 01:09:00;;;;;;;10.18;5.72;;;;;;;;;;4908707;28;20054;-74
2023/05/31 01:11:31;;;;;;;9.95;5.20;;;;;;;;;;4910965;28;20039;-75
2023/05/31 01:14:15;;;;;;;10.13;5.63;;;;;;;;;;4908251;28;20054;-73
2023/05/31 01:16:45;;;;;;;12.73;6.30;;;;;;;;;;4911292;28;20826;-74
2023/05/31 01:19:15;;;;;;;8.52;5.63;;;;;;;;;;4916765;28;20039;-74
2023/05/31 01:21:51;;;;;;;10.25;5.97;;;;;;;;;;4908593;28;20043;-73
2023/05/31 01:24:16;;;;;;;9.75;5.78;;;;;;;;;;4911804;28;20120;-73
2023/05/31 01:26:46;;;;;;;10.73;6.07;;;;;;;;;;4907757;28;20655;-75
2023/05/31 01:29:13;;;;;;;12.43;6.55;;;;;;;;;;4907537;28;20090;-74
2023/05/31 01:31:39;;;;;;;10.30;6.35;;;;;;;;;;4921948;28;20140;-73
2023/05/31 01:34:05;;;;;;;13.40;6.40;;;;;;;;;;4909727;28;20049;-74
2023/05/31 01:36:33;;;;;;;11.85;6.20;;;;;;;;;;4907371;28;20879;-74
2023/05/31 01:38:58;;;;;;;12.88;6.72;;;;;;;;;;4908273;28;20043;-74
2023/05/31 01:41:26;;;;;;;14.95;5.93;;;;;;;;;;4908728;28;20058;-74
2023/05/31 01:43:52;;;;;;;11.82;6.30;;;;;;;;;;4898177;28;20048;-74
2023/05/31 01:46:20;;;;;;;10.73;6.10;;;;;;;;;;4922082;28;20310;-74
2023/05/31 01:48:46;;;;;;;11.10;5.85;;;;;;;;;;4911599;28;20046;-74
2023/05/31 01:51:13;;;;;;;16.17;6.97;;;;;;;;;;4913140;28;20142;-74
2023/05/31 01:53:40;;;;;;;10.82;6.13;;;;;;;;;;4911317;28;20043;-74
2023/05/31 01:56:07;;;;;;;12.00;6.28;;;;;;;;;;4906319;28;20050;-74
2023/05/31 01:58:36;;;;;;;10.15;6.18;;;;;;;;;;4910789;28;21061;-74
2023/05/31 02:01:01;;;;;;;11.95;6.55;;;;;;;;;;4908768;28;20054;-74
2023/05/31 02:03:29;;;;;;;10.88;6.45;;;;;;;;;;4910949;28;20047;-74
2023/05/31 02:05:55;;;;;;;11.52;6.10;;;;;;;;;;4921150;28;20096;-74
2023/05/31 02:08:20;;;;;;;16.73;6.30;;;;;;;;;;4913364;28;20393;-74
2023/05/31 02:10:46;;;;;;;11.15;6.45;;;;;;;;;;4919080;28;20064;-74
2023/05/31 02:13:11;;;;;;;11.98;6.68;;;;;;;;;;4909939;28;20043;-74
2023/05/31 02:15:36;;;;;;;11.80;6.50;;;;;;;;;;4913034;28;20848;-74
2023/05/31 02:18:05;;;;;;;10.95;7.05;;;;;;;;;;4912159;28;20286;-75
2023/05/31 02:20:30;;;;;;;12.65;6.47;;;;;;;;;;4911910;28;20930;-74
2023/05/31 02:22:56;;;;;;;10.98;6.68;;;;;;;;;;4914886;28;20042;-74
2023/05/31 02:25:21;;;;;;;13.50;6.93;;;;;;;;;;4912963;28;20932;-73
2023/05/31 02:27:46;;;;;;;14.45;7.05;;;;;;;;;;4913299;28;20047;-75
2023/05/31 02:30:12;;;;;;;17.25;6.85;;;;;;;;;;4910538;28;20847;-73
2023/05/31 02:32:37;;;;;;;14.43;6.93;;;;;;;;;;4916597;28;20042;-75
2023/05/31 02:35:06;;;;;;;13.07;7.30;;;;;;;;;;4915256;28;21050;-75
2023/05/31 02:37:32;;;;;;;14.50;7.07;;;;;;;;;;4912006;28;20039;-74
2023/05/31 02:39:57;;;;;;;14.57;6.88;;;;;;;;;;4914351;28;20031;-75
2023/05/31 02:42:25;;;;;;;14.85;7.43;;;;;;;;;;4913877;28;20066;-75
2023/05/31 02:44:52;;;;;;;11.73;6.93;;;;;;;;;;4911585;28;20326;-75
2023/05/31 02:47:18;;;;;;;16.85;6.97;;;;;;;;;;4912852;28;20039;-75
2023/05/31 02:49:44;;;;;;;11.10;6.68;;;;;;;;;;4909804;28;20872;-75
2023/05/31 02:52:09;;;;;;;13.75;6.90;;;;;;;;;;4912195;28;20043;-75
2023/05/31 02:54:37;;;;;;;13.25;7.10;;;;;;;;;;4902329;28;20059;-75
2023/05/31 02:57:02;;;;;;;12.27;6.55;;;;;;;;;;4920330;28;20057;-76
2023/05/31 02:59:27;;;;;;;11.23;6.40;;;;;;;;;;4913523;28;20040;-75
2023/05/31 03:01:53;;;;;;;16.73;7.15;;;;;;;;;;4911370;28;20286;-75
2023/05/31 03:04:18;;;;;;;12.63;6.55;;;;;;;;;;4912473;28;20815;-76
2023/05/31 03:06:43;;;;;;;14.00;6.30;;;;;;;;;;4923542;28;20041;-75
2023/05/31 03:09:13;;;;;;;11.98;6.50;;;;;;;;;;4913489;28;20113;-76
2023/05/31 03:11:39;;;;;;;10.68;6.53;;;;;;;;;;4919626;28;20038;-76
2023/05/31 03:14:04;;;;;;;10.30;6.47;;;;;;;;;;4915553;28;20035;-75
2023/05/31 03:16:30;;;;;;;12.45;6.38;;;;;;;;;;4915022;28;20078;-75
2023/05/31 03:18:55;;;;;;;15.63;6.45;;;;;;;;;;4915647;28;20035;-76
2023/05/31 03:21:21;;;;;;;11.65;6.45;;;;;;;;;;4914171;28;20141;-76
2023/05/31 03:23:46;;;;;;;11.63;6.70;;;;;;;;;;4913877;28;20124;-76
2023/05/31 03:26:11;;;;;;;12.82;6.47;;;;;;;;;;4919441;28;20452;-76
2023/05/31 03:28:37;;;;;;;13.77;6.32;;;;;;;;;;4916356;28;20120;-76
2023/05/31 03:31:02;;;;;;;13.40;6.32;;;;;;;;;;4914496;28;20087;-75
2023/05/31 03:33:27;;;;;;;12.60;6.80;;;;;;;;;;4915970;28;20130;-75
2023/05/31 03:35:55;;;;;;;12.20;6.32;;;;;;;;;;4910958;28;20166;-75
2023/05/31 03:38:20;;;;;;;11.85;7.00;;;;;;;;;;4911794;28;20594;-76
2023/05/31 03:40:45;;;;;;;13.15;6.95;;;;;;;;;;4915388;28;20054;-75
2023/05/31 03:43:11;;;;;;;12.85;6.78;;;;;;;;;;4901176;28;20553;-76
2023/05/31 03:45:36;;;;;;;13.65;7.38;;;;;;;;;;4913406;28;20122;-75
2023/05/31 03:48:01;;;;;;;12.88;6.82;;;;;;;;;;4921375;28;20043;-76
2023/05/31 03:50:26;;;;;;;12.43;6.72;;;;;;;;;;4926004;28;20043;-76
2023/05/31 03:52:52;;;;;;;14.73;6.93;;;;;;;;;;4910771;28;20035;-76
2023/05/31 03:55:17;;;;;;;12.32;6.95;;;;;;;;;;4916757;28;20071;-76
2023/05/31 03:57:42;;;;;;;16.17;7.18;;;;;;;;;;4910079;28;20123;-75
2023/05/31 04:00:13;;;;;;;14.63;8.07;;;;;;;;;;4919508;28;20991;-76
2023/05/31 04:02:39;;;;;;;12.20;7.25;;;;;;;;;;4894681;28;20031;-76
2023/05/31 04:05:05;;;;;;;13.73;7.65;;;;;;;;;;4912635;28;20063;-75
2023/05/31 04:07:31;;;;;;;18.08;8.88;;;;;;;;;;4911485;28;20073;-76
2023/05/31 04:09:56;;;;;;;16.25;8.35;;;;;;;;;;4910201;28;20579;-75
2023/05/31 04:12:21;;;;;;;13.60;8.05;;;;;;;;;;4912504;28;20046;-75
2023/05/31 04:14:49;;;;;;;16.67;8.40;;;;;;;;;;4911190;28;20035;-75
2023/05/31 04:17:16;;;;;;;15.00;7.95;;;;;;;;;;4906268;28;22351;-75
2023/05/31 04:19:42;;;;;;;19.17;8.48;;;;;;;;;;4911921;28;20214;-75
2023/05/31 04:22:09;;;;;;;16.45;8.25;;;;;;;;;;4911577;28;20039;-75
2023/05/31 04:24:37;;;;;;;16.35;7.68;;;;;;;;;;4911259;28;20036;-74
2023/05/31 04:27:03;;;;;;;18.30;8.30;;;;;;;;;;4913184;28;20079;-74
2023/05/31 04:29:28;;;;;;;16.55;8.32;;;;;;;;;;4912798;28;20027;-74
2023/05/31 04:31:54;;;;;;;15.02;8.63;;;;;;;;;;4980847;28;20047;-74
2023/05/31 04:34:22;;;;;;;19.83;7.97;;;;;;;;;;4914901;28;20780;-73
2023/05/31 04:36:48;;;;;;;15.88;8.63;;;;;;;;;;4911228;28;20134;-75
2023/05/31 04:39:15;;;;;;;17.63;9.25;;;;;;;;;;4911858;28;20039;-74
2023/05/31 04:41:41;;;;;;;15.52;8.15;;;;;;;;;;4913172;28;20043;-76
2023/05/31 04:44:06;;;;;;;15.98;8.98;;;;;;;;;;4919796;28;20153;-75
2023/05/31 04:46:32;;;;;;;14.88;7.97;;;;;;;;;;4913562;28;20351;-76
2023/05/31 04:49:03;;;;;;;15.77;8.15;;;;;;;;;;4910821;28;20856;-75
2023/05/31 04:51:30;;;;;;;16.00;7.75;;;;;;;;;;4911781;28;20043;-75
2023/05/31 04:53:56;;;;;;;14.15;7.95;;;;;;;;;;4909836;28;20594;-74
2023/05/31 04:56:21;;;;;;;12.65;8.27;;;;;;;;;;4909732;28;20039;-74
2023/05/31 04:58:47;;;;;;;15.52;8.38;;;;;;;;;;4913353;28;20117;-76
2023/05/31 05:01:14;;;;;;;14.75;7.45;;;;;;;;;;4903529;28;20429;-74
2023/05/31 05:03:42;;;;;;;15.52;7.85;;;;;;;;;;4917327;28;20035;-75
2023/05/31 05:06:15;;;;;;;14.80;7.45;;;;;;;;;;4914720;28;20044;-76
2023/05/31 05:08:43;;;;;;;10.57;6.47;;;;;;;;;;4914364;28;20446;-75
2023/05/31 05:11:12;;;;;;;12.73;6.57;;;;;;;;;;4916204;28;20039;-74
2023/05/31 05:13:37;;;;;;;16.25;6.85;;;;;;;;;;4913926;28;20082;-76
2023/05/31 05:16:05;;;;;;;9.93;5.60;;;;;;;;;;4904867;28;20047;-71
2023/05/31 05:18:30;;;;;;;9.93;5.13;;;;;;;;;;4910143;28;20109;-70
2023/05/31 05:20:59;;;;;;;12.27;5.57;;;;;;;;;;4909405;28;20137;-70
2023/05/31 05:23:25;;;;;;;10.23;5.72;;;;;;;;;;4908513;28;20043;-70
2023/05/31 05:25:50;;;;;;;8.88;5.30;;;;;;;;;;4909776;28;20074;-72
2023/05/31 05:28:15;;;;;;;11.70;5.88;;;;;;;;;;4909454;28;20045;-70
2023/05/31 05:30:40;;;;;;;8.98;6.00;;;;;;;;;;4906384;28;20051;-70
2023/05/31 05:33:06;;;;;;;9.52;5.40;;;;;;;;;;4909657;28;20137;-70
2023/05/31 05:35:31;;;;;;;8.82;4.90;;;;;;;;;;4909506;28;20077;-71
2023/05/31 05:37:57;;;;;;;10.60;5.72;;;;;;;;;;4908731;28;20040;-69
2023/05/31 05:40:25;;;;;;;12.10;5.82;;;;;;;;;;4908562;28;20577;-69
2023/05/31 05:42:50;;;;;;;10.88;5.47;;;;;;;;;;4923824;28;20047;-69
2023/05/31 05:45:16;;;;;;;8.90;5.40;;;;;;;;;;4912102;28;20039;-70
2023/05/31 05:47:44;;;;;;;9.15;5.15;;;;;;;;;;4906358;28;20117;-68
2023/05/31 05:50:10;;;;;;;11.30;5.10;;;;;;;;;;4908563;28;20310;-69
2023/05/31 05:52:35;;;;;;;11.00;5.40;;;;;;;;;;4912202;28;21848;-69
2023/05/31 05:55:01;;;;;;;8.55;5.07;;;;;;;;;;4906720;28;20054;-69
2023/05/31 05:57:26;;;;;;;10.77;5.30;;;;;;;;;;4908328;28;20042;-70
2023/05/31 05:59:52;;;;;;;12.02;5.38;;;;;;;;;;4913677;28;20035;-69
2023/05/31 06:02:17;;;;;;;11.68;5.35;;;;;;;;;;4908545;28;21940;-71
2023/05/31 06:04:43;;;;;;;10.10;5.35;;;;;;;;;;4907619;28;20035;-71
2023/05/31 06:07:08;;;;;;;10.88;5.85;;;;;;;;;;4908712;28;20065;-70
2023/05/31 06:09:33;;;;;;;8.85;5.43;;;;;;;;;;4910368;28;20964;-70
2023/05/31 06:11:59;;;;;;;9.07;5.47;;;;;;;;;;4904621;28;20035;-69
2023/05/31 06:14:24;;;;;;;9.82;5.45;;;;;;;;;;4913210;28;20055;-69
2023/05/31 06:16:49;;;;;;;9.27;5.47;;;;;;;;;;4909055;28;20126;-68
2023/05/31 06:19:14;;;;;;;9.40;5.43;;;;;;;;;;4914425;28;20088;-69
2023/05/31 06:21:42;;;;;;;9.30;5.72;;;;;;;;;;4914050;28;20096;-68
2023/05/31 06:24:10;;;;;;;8.30;5.50;;;;;;;;;;4910280;28;20612;-68
2023/05/31 06:26:36;;;;;;;8.60;5.72;;;;;;;;;;4909391;28;20074;-68
2023/05/31 06:29:01;;;;;;;9.93;6.00;;;;;;;;;;4907300;28;20053;-68
2023/05/31 06:31:27;;;;;;;10.55;6.03;;;;;;;;;;4891254;28;21035;-69
2023/05/31 06:33:52;;;;;;;7.85;5.90;;;;;;;;;;4908479;28;20098;-69
2023/05/31 06:36:17;;;;;;;11.25;5.82;;;;;;;;;;4912689;28;20138;-70
2023/05/31 06:38:42;;;;;;;9.43;5.60;;;;;;;;;;4911011;28;20178;-69
2023/05/31 06:41:09;;;;;;;9.20;5.95;;;;;;;;;;4912778;28;20034;-70
2023/05/31 06:43:34;;;;;;;12.82;5.68;;;;;;;;;;4904547;28;20043;-68
2023/05/31 06:45:59;;;;;;;9.82;5.47;;;;;;;;;;4912702;28;21389;-69
2023/05/31 06:48:25;;;;;;;9.13;5.38;;;;;;;;;;4918887;28;20059;-70
2023/05/31 06:50:53;;;;;;;9.57;6.00;;;;;;;;;;4911420;28;20054;-69
2023/05/31 06:53:20;;;;;;;8.90;5.55;;;;;;;;;;4915858;28;20040;-69
2023/05/31 06:55:45;;;;;;;10.15;5.68;;;;;;;;;;4924705;28;20047;-69
2023/05/31 06:58:16;;;;;;;10.75;6.25;;;;;;;;;;4909065;28;20046;-69
2023/05/31 07:00:41;;;;;;;10.05;6.10;;;;;;;;;;4907793;28;20969;-69
2023/05/31 07:03:07;;;;;;;10.55;6.32;;;;;;;;;;4912225;28;20073;-69
2023/05/31 07:05:32;;;;;;;10.45;6.72;;;;;;;;;;4908570;28;20074;-68
2023/05/31 07:07:57;;;;;;;13.15;7.50;;;;;;;;;;4914395;28;20031;-69
2023/05/31 07:10:22;;;;;;;12.05;7.90;;;;;;;;;;4909416;28;20067;-68
2023/05/31 07:12:48;;;;;;;12.07;7.13;;;;;;;;;;4916742;28;20263;-68
2023/05/31 07:15:13;;;;;;;13.30;7.25;;;;;;;;;;4911493;28;20043;-67
2023/05/31 07:17:38;;;;;;;19.02;7.68;;;;;;;;;;4911267;28;20455;-70
2023/05/31 07:20:05;;;;;;;12.73;7.20;;;;;;;;;;4910014;28;20510;-68
2023/05/31 07:22:30;;;;;;;12.02;7.50;;;;;;;;;;4912455;28;21193;-68
2023/05/31 07:24:57;;;;;;;12.90;7.07;;;;;;;;;;4906790;28;20039;-69
2023/05/31 07:27:22;;;;;;;11.25;7.10;;;;;;;;;;4927890;28;20805;-67
2023/05/31 07:29:50;;;;;;;13.98;7.68;;;;;;;;;;4914078;28;20213;-68
2023/05/31 07:32:20;;;;;;;11.60;7.22;;;;;;;;;;4909878;28;20093;-68
2023/05/31 07:34:45;;;;;;;12.00;7.53;;;;;;;;;;4908397;28;20042;-68
2023/05/31 07:37:10;;;;;;;22.77;7.85;;;;;;;;;;4921315;28;20058;-68
2023/05/31 07:39:35;;;;;;;14.43;7.80;;;;;;;;;;4911281;28;20982;-67
2023/05/31 07:42:01;;;;;;;11.48;7.22;;;;;;;;;;4909920;28;20146;-69
2023/05/31 07:44:27;;;;;;;15.38;8.63;;;;;;;;;;4911104;28;20144;-69
2023/05/31 07:46:52;;;;;;;11.68;7.88;;;;;;;;;;4908993;28;20035;-68
2023/05/31 07:49:17;;;;;;;14.18;7.63;;;;;;;;;;4908344;28;20460;-68
2023/05/31 07:51:43;;;;;;;10.90;7.07;;;;;;;;;;4912064;28;20038;-69
2023/05/31 07:54:08;;;;;;;11.45;7.03;;;;;;;;;;4912279;28;20998;-69
2023/05/31 07:56:33;;;;;;;11.77;6.95;;;;;;;;;;4906479;28;20035;-68
2023/05/31 07:58:58;;;;;;;12.80;8.13;;;;;;;;;;4910136;28;20050;-68
2023/05/31 08:01:28;;;;;;;11.18;7.65;;;;;;;;;;4908757;28;20038;-67
2023/05/31 08:04:04;;;;;;;11.98;7.65;;;;;;;;;;4909720;28;20036;-68
2023/05/31 08:06:30;;;;;;;13.48;7.20;;;;;;;;;;4912018;28;20556;-67
2023/05/31 08:08:55;;;;;;;14.70;7.68;;;;;;;;;;4913237;28;20050;-67
2023/05/31 08:11:21;;;;;;;13.05;7.55;;;;;;;;;;4913967;28;20088;-68
2023/05/31 08:13:46;;;;;;;11.60;7.32;;;;;;;;;;4912248;28;21036;-68
2023/05/31 08:16:12;;;;;;;13.85;8.70;;;;;;;;;;4910684;28;20774;-67
2023/05/31 08:18:38;;;;;;;12.48;7.90;;;;;;;;;;4914695;28;20116;-69
2023/05/31 08:21:05;;;;;;;12.75;8.10;;;;;;;;;;4915392;28;20157;-70
2023/05/31 08:23:31;;;;;;;11.15;7.90;;;;;;;;;;4919318;28;20806;-67
2023/05/31 08:25:56;;;;;;;12.30;8.10;;;;;;;;;;4896501;28;20126;-69
2023/05/31 08:28:21;;;;;;;10.63;7.40;;;;;;;;;;4916218;28;20039;-68
2023/05/31 08:30:48;;;;;;;10.65;7.18;;;;;;;;;;4911141;28;22031;-66
2023/05/31 08:33:13;;;;;;;12.25;7.70;;;;;;;;;;4912394;28;20115;-69
2023/05/31 08:35:40;;;;;;;11.05;8.02;;;;;;;;;;4914351;28;20071;-67
2023/05/31 08:38:05;;;;;;;10.52;7.78;;;;;;;;;;4907425;28;20046;-66
2023/05/31 08:40:31;;;;;;;13.30;7.63;;;;;;;;;;4910951;28;20039;-67
2023/05/31 08:43:05;;;;;;;11.52;7.50;;;;;;;;;;4911193;28;20773;-64
2023/05/31 08:45:33;;;;;;;11.88;8.10;;;;;;;;;;4911172;28;20034;-67
2023/05/31 08:48:07;;;;;;;15.30;7.47;;;;;;;;;;4912441;28;20877;-68
2023/05/31 08:50:33;;;;;;;11.57;8.00;;;;;;;;;;4912403;28;20044;-67
2023/05/31 08:52:58;;;;;;;13.77;8.20;;;;;;;;;;4913985;28;20146;-67
2023/05/31 08:55:24;;;;;;;14.65;8.48;;;;;;;;;;4914959;28;20555;-68
2023/05/31 08:57:52;;;;;;;12.75;7.90;;;;;;;;;;4915593;28;20787;-67
2023/05/31 09:00:20;;;;;;;12.05;7.18;;;;;;;;;;4911198;28;20039;-68
2023/05/31 09:02:46;;;;;;;16.40;7.43;;;;;;;;;;4913624;28;20035;-70
2023/05/31 09:05:13;;;;;;;12.00;7.50;;;;;;;;;;4914615;28;20049;-70
2023/05/31 09:07:38;;;;;;;11.32;7.25;;;;;;;;;;4909639;28;20117;-69
2023/05/31 09:10:06;;;;;;;12.68;7.88;;;;;;;;;;4914152;28;20039;-71
2023/05/31 09:12:31;;;;;;;12.55;7.80;;;;;;;;;;4909358;28;20257;-69
2023/05/31 09:14:57;;;;;;;11.60;6.90;;;;;;;;;;4910848;28;20423;-71
2023/05/31 09:17:25;;;;;;;12.02;7.63;;;;;;;;;;4911147;28;20058;-71
2023/05/31 09:19:52;;;;;;;14.82;7.32;;;;;;;;;;4908673;28;20031;-70
2023/05/31 09:22:20;;;;;;;10.00;7.70;;;;;;;;;;4914945;28;20922;-69
2023/05/31 09:24:56;;;;;;;10.93;6.90;;;;;;;;;;4909207;28;20795;-70
2023/05/31 09:27:21;;;;;;;12.68;7.05;;;;;;;;;;4909956;28;20039;-70
2023/05/31 09:29:50;;;;;;;11.73;7.75;;;;;;;;;;4910123;28;20034;-70
2023/05/31 09:32:17;;;;;;;11.45;7.43;;;;;;;;;;4911712;28;20951;-70
2023/05/31 09:34:44;;;;;;;10.57;7.47;;;;;;;;;;4914528;28;20204;-66
2023/05/31 09:37:20;;;;;;;11.15;7.55;;;;;;;;;;4909873;28;20043;-68
2023/05/31 09:39:57;;;;;;;15.40;7.30;;;;;;;;;;4914195;28;20073;-67
2023/05/31 09:42:29;;;;;;;10.95;7.53;;;;;;;;;;4911792;28;20403;-68
2023/05/31 09:44:54;;;;;;;11.40;7.15;;;;;;;;;;4909785;28;20035;-68
2023/05/31 09:47:24;;;;;;;11.50;7.03;;;;;;;;;;4909211;28;20098;-70
2023/05/31 09:49:49;;;;;;;10.20;6.72;;;;;;;;;;4906464;28;20042;-67
2023/05/31 09:52:14;;;;;;;11.77;7.05;;;;;;;;;;4907983;28;20118;-71
2023/05/31 09:54:40;;;;;;;12.13;6.85;;;;;;;;;;4918751;28;20038;-69
2023/05/31 09:57:06;;;;;;;15.52;7.45;;;;;;;;;;4910405;28;20234;-69
2023/05/31 09:59:31;;;;;;;10.73;6.85;;;;;;;;;;4909210;28;20081;-70
2023/05/31 10:01:57;;;;;;;14.38;7.28;;;;;;;;;;4908305;28;20146;-70
2023/05/31 10:04:22;;;;;;;11.93;6.47;;;;;;;;;;4916034;28;20117;-69
2023/05/31 10:06:47;;;;;;;11.95;6.82;;;;;;;;;;4906927;28;20779;-68
2023/05/31 10:09:13;;;;;;;9.20;6.45;;;;;;;;;;4909419;28;20032;-65
2023/05/31 10:11:41;;;;;;;12.70;6.90;;;;;;;;;;4912704;28;20035;-67
2023/05/31 10:14:14;;;;;;;9.40;6.68;;;;;;;;;;4902637;28;20039;-69
2023/05/31 10:16:45;;;;;;;12.32;7.43;;;;;;;;;;4906825;28;20058;-71
2023/05/31 10:19:11;;;;;;;11.80;6.65;;;;;;;;;;4917510;28;20119;-69
2023/05/31 10:21:41;;;;;;;12.38;7.30;;;;;;;;;;4926169;28;20543;-68
2023/05/31 10:24:06;;;;;;;12.85;7.43;;;;;;;;;;4917209;28;20047;-67
2023/05/31 10:26:44;;;;;;;13.38;6.90;;;;;;;;;;4912941;28;20035;-67
2023/05/31 10:29:13;;;;;;;11.77;7.07;;;;;;;;;;4912213;28;20035;-68
2023/05/31 10:31:47;;;;;;;10.90;7.45;;;;;;;;;;4925748;28;20073;-68
2023/05/31 10:34:22;;;;;;;13.18;7.63;;;;;;;;;;4912679;28;21021;-68
2023/05/31 10:36:48;;;;;;;10.20;6.68;;;;;;;;;;4914032;28;20194;-70
2023/05/31 10:39:31;;;;;;;11.18;6.90;;;;;;;;;;4912776;28;20035;-71
2023/05/31 10:42:06;;;;;;;12.23;7.43;;;;;;;;;;4911961;28;20781;-66
2023/05/31 10:44:36;;;;;;;12.05;7.10;;;;;;;;;;4910901;28;20158;-71
2023/05/31 10:47:05;;;;;;;10.88;6.40;;;;;;;;;;4910347;28;20043;-73
2023/05/31 10:49:32;;;;;;;11.32;7.18;;;;;;;;;;4910675;28;20036;-72
2023/05/31 10:52:03;;;;;;;17.45;7.55;;;;;;;;;;4913748;28;20741;-74
2023/05/31 10:54:32;;;;;;;11.07;7.05;;;;;;;;;;4901614;28;20035;-73
2023/05/31 10:56:59;;;;;;;13.68;7.45;;;;;;;;;;4913855;28;20755;-73
2023/05/31 10:59:27;;;;;;;11.82;7.13;;;;;;;;;;4911968;28;22381;-71
2023/05/31 11:01:53;;;;;;;10.80;6.80;;;;;;;;;;4900484;28;20072;-71
2023/05/31 11:04:23;;;;;;;12.23;7.50;;;;;;;;;;4913123;28;20973;-73
2023/05/31 11:06:55;;;;;;;11.57;8.00;;;;;;;;;;4911575;28;20035;-71
2023/05/31 11:09:20;;;;;;;10.60;7.53;;;;;;;;;;4911070;28;20035;-72
2023/05/31 11:11:47;;;;;;;12.68;7.38;;;;;;;;;;4915653;28;20068;-72
2023/05/31 11:14:15;;;;;;;12.45;7.47;;;;;;;;;;4909652;28;20042;-65
2023/05/31 11:16:43;;;;;;;17.88;7.53;;;;;;;;;;4910634;28;20082;-72
2023/05/31 11:19:14;;;;;;;9.70;6.85;;;;;;;;;;4924252;28;20700;-70
2023/05/31 11:21:49;;;;;;;13.27;6.65;;;;;;;;;;4909674;28;20036;-71
2023/05/31 11:24:33;;;;;;;9.45;7.15;;;;;;;;;;4909413;28;20062;-72
2023/05/31 11:27:00;;;;;;;11.25;7.03;;;;;;;;;;4910246;28;20076;-72
2023/05/31 11:29:47;;;;;;;9.02;6.18;;;;;;;;;;4922008;28;20184;-72
2023/05/31 11:32:33;;;;;;;9.98;6.65;;;;;;;;;;4911424;28;20055;-71
2023/05/31 11:35:01;;;;;;;9.05;5.80;;;;;;;;;;4915804;28;20039;-71
2023/05/31 11:37:29;;;;;;;7.32;5.60;;;;;;;;;;4914151;28;20122;-70
2023/05/31 11:39:55;;;;;;;9.98;5.95;;;;;;;;;;4914875;28;20063;-70
2023/05/31 11:42:24;;;;;;;10.77;5.93;;;;;;;;;;4925871;28;20065;-69
2023/05/31 11:44:50;;;;;;;12.85;6.47;;;;;;;;;;4927081;28;20146;-71
2023/05/31 11:47:25;;;;;;;7.72;5.55;;;;;;;;;;4913121;28;20311;-74
2023/05/31 11:49:50;;;;;;;12.35;6.43;;;;;;;;;;4914817;28;20122;-68
2023/05/31 11:52:16;;;;;;;10.40;5.80;;;;;;;;;;4914690;28;20100;-68
2023/05/31 11:54:43;;;;;;;9.90;6.30;;;;;;;;;;4893587;28;20449;-67
2023/05/31 11:57:10;;;;;;;14.13;6.30;;;;;;;;;;4894124;28;20904;-68
2023/05/31 11:59:37;;;;;;;8.27;5.20;;;;;;;;;;4890297;28;20036;-68
2023/05/31 12:02:05;;;;;;;12.23;5.95;;;;;;;;;;4927032;28;20097;-68
2023/05/31 12:04:35;;;;;;;11.90;6.07;;;;;;;;;;4912039;28;20755;-69
2023/05/31 12:07:01;;;;;;;9.90;5.95;;;;;;;;;;4913058;28;20147;-70
2023/05/31 12:09:27;;;;;;;10.18;5.95;;;;;;;;;;4907591;28;20051;-68
2023/05/31 12:11:53;;;;;;;10.48;5.68;;;;;;;;;;4911905;28;20042;-67
2023/05/31 12:14:18;;;;;;;10.60;5.57;;;;;;;;;;4912439;28;20071;-66
2023/05/31 12:16:46;;;;;;;9.73;5.63;;;;;;;;;;4911699;28;20045;-67
2023/05/31 12:19:11;;;;;;;10.45;5.70;;;;;;;;;;4911844;28;20031;-67
2023/05/31 12:21:37;;;;;;;9.30;4.95;;;;;;;;;;4911375;28;20054;-67
2023/05/31 12:24:12;;;;;;;8.65;4.85;;;;;;;;;;4911771;28;20039;-72
2023/05/31 12:26:42;;;;;;;9.90;5.57;;;;;;;;;;4910911;28;20137;-66
2023/05/31 12:29:10;;;;;;;8.60;5.05;;;;;;;;;;4912072;28;20039;-66
2023/05/31 12:31:36;;;;;;;8.45;4.72;;;;;;;;;;4916672;28;20039;-67
2023/05/31 12:34:05;;;;;;;8.32;4.75;;;;;;;;;;4910657;28;20046;-68
2023/05/31 12:36:43;;;;;;;8.50;5.00;;;;;;;;;;4910002;28;20084;-69
2023/05/31 12:39:11;;;;;;;9.15;5.10;;;;;;;;;;4911560;28;20743;-68
2023/05/31 12:41:42;;;;;;;11.07;4.50;;;;;;;;;;4909161;28;20035;-68
2023/05/31 12:44:08;;;;;;;10.55;5.10;;;;;;;;;;4911676;28;20042;-68
2023/05/31 12:46:36;;;;;;;12.43;5.03;;;;;;;;;;4917267;28;20039;-68
2023/05/31 12:49:09;;;;;;;11.73;5.28;;;;;;;;;;4908679;28;20031;-67
2023/05/31 12:51:36;;;;;;;9.30;5.32;;;;;;;;;;4908634;28;20035;-68
2023/05/31 12:54:01;;;;;;;10.57;5.82;;;;;;;;;;4910589;28;20034;-67
2023/05/31 12:56:27;;;;;;;11.43;5.60;;;;;;;;;;4911848;28;20839;-68
2023/05/31 12:58:52;;;;;;;8.63;5.80;;;;;;;;;;4912727;28;20039;-68
2023/05/31 13:01:19;;;;;;;10.55;5.85;;;;;;;;;;4911530;28;20505;-68
2023/05/31 13:03:44;;;;;;;10.68;5.45;;;;;;;;;;4911090;28;20039;-67
2023/05/31 13:06:10;;;;;;;12.18;5.43;;;;;;;;;;4911361;28;20054;-68
2023/05/31 13:08:35;;;;;;;10.30;6.10;;;;;;;;;;4914654;28;20035;-68
2023/05/31 13:11:01;;;;;;;10.18;5.40;;;;;;;;;;4915778;28;20153;-68
2023/05/31 13:13:28;;;;;;;11.00;5.80;;;;;;;;;;4911239;28;20933;-68
2023/05/31 13:15:56;;;;;;;10.63;6.25;;;;;;;;;;4911844;28;20042;-67
2023/05/31 13:18:21;;;;;;;13.40;5.97;;;;;;;;;;4913455;28;20974;-67
2023/05/31 13:20:47;;;;;;;12.73;5.85;;;;;;;;;;4908899;28;20047;-66
2023/05/31 13:23:12;;;;;;;10.98;5.82;;;;;;;;;;4909729;28;20039;-70
2023/05/31 13:25:40;;;;;;;12.27;5.97;;;;;;;;;;4909250;28;20055;-67
2023/05/31 13:28:06;;;;;;;9.90;5.63;;;;;;;;;;4914424;28;20931;-66
2023/05/31 13:30:31;;;;;;;11.68;6.25;;;;;;;;;;4901316;28;20070;-67
2023/05/31 13:32:56;;;;;;;13.20;5.90;;;;;;;;;;4916185;28;20049;-67
2023/05/31 13:35:21;;;;;;;12.88;6.43;;;;;;;;;;4921600;28;20054;-68
2023/05/31 13:37:47;;;;;;;18.60;5.95;;;;;;;;;;4914576;28;20055;-68
2023/05/31 13:40:12;;;;;;;13.30;5.55;;;;;;;;;;4918766;28;20041;-71
2023/05/31 13:42:38;;;;;;;12.52;5.40;;;;;;;;;;4917645;28;20031;-69
2023/05/31 13:45:03;;;;;;;7.38;5.07;;;;;;;;;;4918737;28;20046;-69
2023/05/31 13:47:30;;;;;;;11.38;5.43;;;;;;;;;;4917566;28;20035;-69
2023/05/31 13:49:56;;;;;;;14.88;5.28;;;;;;;;;;4929241;28;20082;-68
2023/05/31 13:52:22;;;;;;;9.55;5.55;;;;;;;;;;4918843;28;20036;-69
2023/05/31 13:54:50;;;;;;;16.13;5.68;;;;;;;;;;4917980;28;20043;-68
2023/05/31 13:57:15;;;;;;;9.98;5.20;;;;;;;;;;4911685;28;20043;-67
2023/05/31 13:59:43;;;;;;;9.40;5.05;;;;;;;;;;4911265;28;20162;-69
2023/05/31 14:02:08;;;;;;;11.57;5.80;;;;;;;;;;4912695;28;20043;-68
2023/05/31 14:04:36;;;;;;;8.68;5.03;;;;;;;;;;4922523;28;20041;-68
2023/05/31 14:07:03;;;;;;;11.00;5.40;;;;;;;;;;4922311;28;20043;-68
2023/05/31 14:09:31;;;;;;;10.95;5.70;;;;;;;;;;4918629;28;20103;-69
2023/05/31 14:11:58;;;;;;;8.90;5.20;;;;;;;;;;4915689;28;20428;-70
2023/05/31 14:14:23;;;;;;;11.70;5.32;;;;;;;;;;4904973;28;20089;-68
2023/05/31 14:16:49;;;;;;;10.38;5.40;;;;;;;;;;4912753;28;20126;-69
2023/05/31 14:19:14;;;;;;;11.82;5.15;;;;;;;;;;4914673;28;20055;-70
2023/05/31 14:21:40;;;;;;;10.15;4.78;;;;;;;;;;4917498;28;20344;-69
2023/05/31 14:24:08;;;;;;;9.93;4.60;;;;;;;;;;4920073;28;20050;-70
2023/05/31 14:26:34;;;;;;;10.60;5.35;;;;;;;;;;4915309;28;20039;-70
2023/05/31 14:29:01;;;;;;;11.57;5.68;;;;;;;;;;4903116;28;20214;-70
2023/05/31 14:31:27;;;;;;;9.32;4.90;;;;;;;;;;4911303;28;20050;-72